createdAt,value
2022-11-18T00:01:22.492Z,99478.57
2022-11-18T00:03:51.605Z,99477.38
2022-11-18T00:06:21.931Z,99473.20
2022-11-18T00:08:50.442Z,99471.84
2022-11-18T00:11:40.035Z,99472.98
2022-11-18T00:14:19.471Z,99476.67
2022-11-18T00:16:54.984Z,99472.80
2022-11-18T00:19:34.506Z,99473.24
2022-11-18T00:22:03.327Z,99470.10
2022-11-18T00:24:31.743Z,99468.60
2022-11-18T00:26:59.616Z,99463.80
2022-11-18T00:29:28.490Z,99462.05
2022-11-18T00:31:57.411Z,99463.16
2022-11-18T00:34:26.091Z,99463.33
2022-11-18T00:36:53.827Z,99461.67
2022-11-18T00:39:22.063Z,99460.86
2022-11-18T00:42:08.477Z,99462.71
2022-11-18T00:44:37.021Z,99461.60
2022-11-18T00:47:05.274Z,99464.23
2022-11-18T00:49:33.161Z,99457.05
2022-11-18T00:52:01.340Z,99459.77
2022-11-18T00:54:29.260Z,99461.21
2022-11-18T00:56:56.968Z,99463.81
2022-11-18T00:59:24.809Z,99458.47
2022-11-18T01:01:52.651Z,99457.28
2022-11-18T01:04:20.487Z,99458.11
2022-11-18T01:06:48.411Z,99455.03
2022-11-18T01:09:16.495Z,99453.24
2022-11-18T01:12:02.910Z,99446.41
2022-11-18T01:14:30.823Z,99450.88
2022-11-18T01:16:58.624Z,99448.06
2022-11-18T01:19:26.479Z,99449.13
2022-11-18T01:21:56.454Z,99450.27
2022-11-18T01:24:24.167Z,99445.36
2022-11-18T01:26:51.934Z,99440.08
2022-11-18T01:29:20.015Z,99437.30
2022-11-18T01:32:16.890Z,99438.54
2022-11-18T01:34:35.832Z,99439.70
2022-11-18T01:37:03.703Z,99436.79
2022-11-18T01:39:31.843Z,99437.00
2022-11-18T01:41:59.669Z,99435.31
2022-11-18T01:45:02.353Z,99430.70
2022-11-18T01:47:35.635Z,99430.63
2022-11-18T01:50:05.201Z,99428.27
2022-11-18T01:52:35.048Z,99427.50
2022-11-18T01:55:06.188Z,99426.42
2022-11-18T01:57:34.416Z,99422.88
2022-11-18T02:00:04.876Z,99422.71
2022-11-18T02:02:37.722Z,99424.35
2022-11-18T02:05:08.361Z,99425.53
2022-11-18T02:07:43.360Z,99421.07
2022-11-18T02:10:20.991Z,99418.36
2022-11-18T02:12:51.024Z,99414.91
2022-11-18T02:15:44.476Z,99413.02
2022-11-18T02:18:30.967Z,99415.59
2022-11-18T02:21:28.413Z,99414.98
2022-11-18T02:24:25.009Z,99419.39
2022-11-18T02:27:33.403Z,99423.25
2022-11-18T02:30:08.769Z,99419.20
2022-11-18T02:32:51.706Z,99420.05
2022-11-18T02:35:28.165Z,99415.81
2022-11-18T02:38:04.978Z,99416.18
2022-11-18T02:40:37.062Z,99414.16
2022-11-18T02:43:08.853Z,99410.95
2022-11-18T02:45:42.271Z,99409.97
2022-11-18T02:48:13.232Z,99406.14
2022-11-18T02:50:43.591Z,99406.36
2022-11-18T02:53:14.976Z,99406.10
2022-11-18T02:55:44.377Z,99407.89
2022-11-18T02:58:14.496Z,99408.76
2022-11-18T03:00:42.279Z,99405.20
2022-11-18T03:03:30.082Z,99399.30
2022-11-18T03:06:04.621Z,99398.89
2022-11-18T03:08:39.773Z,99397.52
2022-11-18T03:11:20.967Z,99395.50
2022-11-18T03:14:16.073Z,99391.04
2022-11-18T03:17:00.660Z,99387.23
2022-11-18T03:19:53.193Z,99384.94
2022-11-18T03:22:23.903Z,99384.77
2022-11-18T03:25:06.017Z,99379.20
2022-11-18T03:27:41.297Z,99378.11
2022-11-18T03:30:13.525Z,99375.67
2022-11-18T03:32:45.742Z,99375.98
2022-11-18T03:35:19.899Z,99378.98
2022-11-18T03:37:52.350Z,99375.25
2022-11-18T03:40:29.758Z,99375.90
2022-11-18T03:43:09.956Z,99375.55
2022-11-18T03:45:46.228Z,99374.60
2022-11-18T03:48:20.221Z,99376.27
2022-11-18T03:51:11.357Z,99374.16
2022-11-18T03:53:47.905Z,99375.31
2022-11-18T03:56:28.429Z,99372.52
2022-11-18T03:58:59.487Z,99372.55
2022-11-18T04:01:42.618Z,99372.78
2022-11-18T04:04:11.656Z,99380.77
2022-11-18T04:06:46.742Z,99381.45
2022-11-18T04:09:23.901Z,99377.81
2022-11-18T04:12:03.450Z,99384.20
2022-11-18T04:14:38.596Z,99382.94
2022-11-18T04:17:19.879Z,99382.36
2022-11-18T04:19:48.062Z,99377.63
2022-11-18T04:22:17.886Z,99379.98
2022-11-18T04:24:46.154Z,99382.59
2022-11-18T04:27:14.075Z,99376.77
2022-11-18T04:29:41.765Z,99375.61
2022-11-18T04:32:09.516Z,99382.01
2022-11-18T04:34:37.324Z,99379.48
2022-11-18T04:37:05.137Z,99373.75
2022-11-18T04:39:32.947Z,99371.70
2022-11-18T04:42:00.712Z,99368.14
2022-11-18T04:44:30.931Z,99371.08
2022-11-18T04:47:01.223Z,99367.27
2022-11-18T04:49:29.698Z,99361.83
2022-11-18T04:51:57.828Z,99360.02
2022-11-18T04:54:26.949Z,99363.98
2022-11-18T04:56:55.366Z,99365.23
2022-11-18T04:59:29.458Z,99362.63
2022-11-18T05:01:58.445Z,99363.85
2022-11-18T05:04:30.091Z,99367.89
2022-11-18T05:06:59.001Z,99367.66
2022-11-18T05:09:31.829Z,99370.76
2022-11-18T05:12:19.813Z,99369.86
2022-11-18T05:14:50.359Z,99367.61
2022-11-18T05:17:19.252Z,99366.22
2022-11-18T05:19:47.149Z,99366.50
2022-11-18T05:22:15.661Z,99370.00
2022-11-18T05:24:43.475Z,99371.50
2022-11-18T05:27:12.681Z,99369.06
2022-11-18T05:29:41.433Z,99367.25
2022-11-18T05:32:09.267Z,99363.96
2022-11-18T05:34:37.176Z,99357.89
2022-11-18T05:37:04.955Z,99356.55
2022-11-18T05:39:33.892Z,99357.63
2022-11-18T05:42:23.111Z,99356.89
2022-11-18T05:44:57.833Z,99359.48
2022-11-18T05:47:27.081Z,99356.05
2022-11-18T05:49:54.899Z,99362.36
2022-11-18T05:52:22.657Z,99356.48
2022-11-18T05:54:51.596Z,99358.36
2022-11-18T05:57:19.411Z,99362.70
2022-11-18T05:59:47.355Z,99360.88
2022-11-18T06:02:22.281Z,99357.89
2022-11-18T06:05:02.871Z,99357.13
2022-11-18T06:07:43.031Z,99355.19
2022-11-18T06:10:18.201Z,99355.27
2022-11-18T06:12:49.342Z,99354.55
2022-11-18T06:15:27.277Z,99357.02
2022-11-18T06:18:07.195Z,99357.64
2022-11-18T06:20:38.144Z,99361.31
2022-11-18T06:23:06.211Z,99366.20
2022-11-18T06:25:37.678Z,99366.52
2022-11-18T06:28:05.566Z,99370.23
2022-11-18T06:30:33.340Z,99371.80
2022-11-18T06:33:01.075Z,99373.66
2022-11-18T06:35:28.793Z,99373.03
2022-11-18T06:37:57.255Z,99378.83
2022-11-18T06:40:24.992Z,99377.42
2022-11-18T06:43:11.236Z,99380.41
2022-11-18T06:45:39.027Z,99382.46
2022-11-18T06:48:07.202Z,99385.77
2022-11-18T06:50:35.072Z,99385.77
2022-11-18T06:53:02.838Z,99383.52
2022-11-18T06:55:31.073Z,99385.21
2022-11-18T06:57:58.866Z,99383.65
2022-11-18T07:00:26.669Z,99386.10
2022-11-18T07:02:54.417Z,99383.65
2022-11-18T07:05:22.168Z,99386.55
2022-11-18T07:07:50.071Z,99386.07
2022-11-18T07:10:17.868Z,99387.73
2022-11-18T07:12:45.750Z,99393.86
2022-11-18T07:15:14.454Z,99392.46
2022-11-18T07:17:42.227Z,99394.80
2022-11-18T07:20:10.535Z,99396.33
2022-11-18T07:22:38.341Z,99404.05
2022-11-18T07:25:06.274Z,99407.02
2022-11-18T07:27:34.041Z,99412.60
2022-11-18T07:30:01.767Z,99414.98
2022-11-18T07:32:29.554Z,99413.50
2022-11-18T07:34:57.304Z,99410.21
2022-11-18T07:37:25.148Z,99414.38
2022-11-18T07:39:53.113Z,99417.73
2022-11-18T07:42:20.949Z,99420.99
2022-11-18T07:44:48.702Z,99424.13
2022-11-18T07:47:16.513Z,99423.66
2022-11-18T07:49:44.385Z,99421.79
2022-11-18T07:52:12.114Z,99427.27
2022-11-18T07:54:39.994Z,99423.67
2022-11-18T07:57:08.029Z,99421.71
2022-11-18T07:59:35.887Z,99424.61
2022-11-18T08:02:03.739Z,99427.94
2022-11-18T08:04:31.867Z,99426.13
2022-11-18T08:06:59.641Z,99427.75
2022-11-18T08:09:27.382Z,99429.61
2022-11-18T08:11:55.106Z,99432.55
2022-11-18T08:14:24.230Z,99435.45
2022-11-18T08:16:52.027Z,99432.81
2022-11-18T08:19:20.115Z,99437.77
2022-11-18T08:21:48.124Z,99436.86
2022-11-18T08:24:15.974Z,99443.49
2022-11-18T08:26:43.715Z,99445.29
2022-11-18T08:29:11.533Z,99444.63
2022-11-18T08:31:39.340Z,99447.52
2022-11-18T08:34:07.932Z,99445.59
2022-11-18T08:36:38.093Z,99447.27
2022-11-18T08:39:08.952Z,99448.42
2022-11-18T08:41:38.390Z,99449.42
2022-11-18T08:44:08.174Z,99447.24
2022-11-18T08:46:35.955Z,99450.95
2022-11-18T08:49:04.125Z,99450.79
2022-11-18T08:51:32.077Z,99452.75
2022-11-18T08:53:59.988Z,99452.92
2022-11-18T08:56:28.017Z,99454.25
2022-11-18T08:58:56.564Z,99459.41
2022-11-18T09:01:24.372Z,99460.22
2022-11-18T09:03:52.705Z,99459.88
2022-11-18T09:06:24.303Z,99456.35
2022-11-18T09:08:52.958Z,99454.49
2022-11-18T09:11:24.023Z,99450.88
2022-11-18T09:16:44.356Z,99452.02
2022-11-18T09:19:40.194Z,99447.64
2022-11-18T09:21:59.953Z,99446.48
2022-11-18T09:24:28.212Z,99446.31
2022-11-18T09:26:55.956Z,99438.17
2022-11-18T09:29:26.225Z,99438.48
2022-11-18T09:31:54.678Z,99438.14
2022-11-18T09:34:23.332Z,99439.98
2022-11-18T09:36:51.477Z,99441.52
2022-11-18T09:39:19.567Z,99441.31
2022-11-18T09:41:48.510Z,99438.82
2022-11-18T09:44:31.390Z,99432.25
2022-11-18T09:47:11.922Z,99427.27
2022-11-18T09:49:42.453Z,99425.48
2022-11-18T09:52:12.883Z,99431.31
2022-11-18T09:54:40.865Z,99428.31
2022-11-18T09:57:21.210Z,99426.38
2022-11-18T09:59:49.001Z,99431.30
2022-11-18T10:02:28.026Z,99432.46
2022-11-18T10:05:01.637Z,99431.17
2022-11-18T10:07:45.099Z,99429.83
2022-11-18T10:10:19.723Z,99433.81
2022-11-18T10:12:55.673Z,99433.34
2022-11-18T10:15:32.960Z,99435.59
2022-11-18T10:18:59.272Z,99439.42
2022-11-18T10:21:45.519Z,99443.11
2022-11-18T10:24:18.997Z,99446.48
2022-11-18T10:26:47.234Z,99445.48
2022-11-18T10:29:14.943Z,99449.05
2022-11-18T10:32:16.438Z,99453.79
2022-11-18T10:34:56.041Z,99453.40
2022-11-18T10:38:05.771Z,99457.38
2022-11-18T10:40:25.719Z,99456.73
2022-11-18T10:42:54.265Z,99456.25
2022-11-18T10:45:26.910Z,99455.20
2022-11-18T10:48:21.018Z,99456.98
2022-11-18T10:50:55.035Z,99463.89
2022-11-18T10:53:35.106Z,99459.65
2022-11-18T10:56:08.459Z,99464.38
2022-11-18T10:58:42.227Z,99460.85
2022-11-18T11:01:27.201Z,99458.89
2022-11-18T11:04:01.296Z,99461.08
2022-11-18T11:06:38.117Z,99464.61
2022-11-18T11:09:25.318Z,99465.52
2022-11-18T11:11:57.709Z,99467.40
2022-11-18T11:14:47.117Z,99468.14
2022-11-18T11:17:29.988Z,99472.23
2022-11-18T11:20:04.276Z,99476.52
2022-11-18T11:22:32.117Z,99478.44
2022-11-18T11:24:59.779Z,99479.30
2022-11-18T11:30:38.753Z,99490.29
2022-11-18T11:33:36.800Z,99489.80
2022-11-18T11:36:41.138Z,99483.55
2022-11-18T11:39:34.939Z,99482.28
2022-11-18T11:42:28.620Z,99484.06
2022-11-18T11:44:56.227Z,99491.46
2022-11-18T11:47:50.079Z,99486.98
2022-11-18T11:51:03.859Z,99490.83
2022-11-18T11:54:04.352Z,99490.87
2022-11-18T11:56:41.034Z,99491.20
2022-11-18T11:59:19.725Z,99491.16
2022-11-18T12:02:09.373Z,99490.38
2022-11-18T12:04:50.008Z,99491.77
2022-11-18T12:07:23.935Z,99492.59
2022-11-18T12:10:16.266Z,99495.08
2022-11-18T12:13:08.738Z,99495.63
2022-11-18T12:15:45.620Z,99494.69
2022-11-18T12:18:42.423Z,99491.29
2022-11-18T12:21:45.545Z,99494.48
2022-11-18T12:24:32.929Z,99491.81
2022-11-18T12:27:13.449Z,99495.45
2022-11-18T12:30:03.749Z,99498.79
2022-11-18T12:32:42.848Z,99499.04
2022-11-18T12:35:13.805Z,99500.52
2022-11-18T12:37:57.580Z,99502.17
2022-11-18T12:40:39.187Z,99504.32
2022-11-18T12:43:47.556Z,99501.79
2022-11-18T12:46:40.116Z,99503.69
2022-11-18T12:49:21.104Z,99503.54
2022-11-18T12:51:49.786Z,99500.79
2022-11-18T12:54:26.240Z,99500.44
2022-11-18T12:56:55.854Z,99499.14
2022-11-18T12:59:33.013Z,99495.28
2022-11-18T13:02:05.809Z,99494.06
2022-11-18T13:04:33.676Z,99494.46
2022-11-18T13:07:03.119Z,99490.29
2022-11-18T13:09:34.260Z,99492.28
2022-11-18T13:12:08.713Z,99496.24
2022-11-18T13:14:59.539Z,99490.42
2022-11-18T13:18:06.055Z,99489.47
2022-11-18T13:20:36.128Z,99491.60
2022-11-18T13:23:28.642Z,99489.05
2022-11-18T13:26:27.112Z,99488.95
2022-11-18T13:29:32.109Z,99485.01
2022-11-18T13:32:18.379Z,99489.28
2022-11-18T13:34:52.378Z,99488.91
2022-11-18T13:37:24.417Z,99491.65
2022-11-18T13:39:53.105Z,99487.67
2022-11-18T13:42:29.661Z,99494.75
2022-11-18T13:44:59.425Z,99495.41
2022-11-18T13:47:40.489Z,99495.02
2022-11-18T13:50:11.237Z,99492.98
2022-11-18T13:52:48.265Z,99500.69
2022-11-18T13:55:22.694Z,99502.72
2022-11-18T13:58:00.618Z,99502.94
2022-11-18T14:00:30.580Z,99505.33
2022-11-18T14:03:02.372Z,99513.02
2022-11-18T14:05:30.429Z,99510.44
2022-11-18T14:08:05.279Z,99509.37
2022-11-18T14:10:42.802Z,99505.95
2022-11-18T14:13:17.427Z,99509.05
2022-11-18T14:15:45.484Z,99510.48
2022-11-18T14:18:28.377Z,99515.20
2022-11-18T14:20:56.245Z,99518.66
2022-11-18T14:23:33.750Z,99517.42
2022-11-18T14:26:04.599Z,99521.77
2022-11-18T14:28:36.700Z,99522.41
2022-11-18T14:31:24.353Z,99524.20
2022-11-18T14:34:26.881Z,99529.80
2022-11-18T14:36:55.824Z,99530.80
2022-11-18T14:39:32.051Z,99527.80
2022-11-18T14:42:00.218Z,99533.05
2022-11-18T14:44:28.614Z,99535.54
2022-11-18T14:47:03.075Z,99536.98
2022-11-18T14:49:32.700Z,99536.70
2022-11-18T14:52:04.554Z,99543.40
2022-11-18T14:54:32.487Z,99545.08
2022-11-18T14:57:03.040Z,99544.70
2022-11-18T14:59:31.408Z,99546.32
2022-11-18T15:01:59.484Z,99548.85
2022-11-18T15:04:27.785Z,99548.33
2022-11-18T15:06:56.322Z,99549.23
2022-11-18T15:09:24.674Z,99556.53
2022-11-18T15:11:52.347Z,99559.01
2022-11-18T15:14:20.620Z,99560.48
2022-11-18T15:16:48.737Z,99563.52
2022-11-18T15:19:16.760Z,99565.48
2022-11-18T15:21:45.525Z,99567.63
2022-11-18T15:24:13.797Z,99569.10
2022-11-18T15:26:44.665Z,99573.48
2022-11-18T15:29:21.120Z,99575.45
2022-11-18T15:31:49.293Z,99576.22
2022-11-18T15:34:20.056Z,99580.25
2022-11-18T15:36:48.424Z,99580.25
2022-11-18T15:39:16.068Z,99583.66
2022-11-18T15:41:44.541Z,99583.63
2022-11-18T15:44:12.422Z,99581.22
2022-11-18T15:46:40.319Z,99585.02
2022-11-18T15:49:13.557Z,99590.35
2022-11-18T15:51:41.537Z,99591.98
2022-11-18T15:54:09.290Z,99593.86
2022-11-18T15:56:37.876Z,99597.30
2022-11-18T15:59:17.132Z,99599.62
2022-11-18T16:01:48.901Z,99607.65
2022-11-18T16:04:19.381Z,99610.31
2022-11-18T16:06:47.402Z,99614.67
2022-11-18T16:09:17.256Z,99617.59
2022-11-18T16:12:03.601Z,99622.05
2022-11-18T16:14:31.382Z,99619.46
2022-11-18T16:16:59.240Z,99624.64
2022-11-18T16:19:27.253Z,99631.75
2022-11-18T16:21:57.217Z,99633.48
2022-11-18T16:24:28.550Z,99643.13
2022-11-18T16:26:57.031Z,99643.63
2022-11-18T16:29:25.166Z,99640.95
2022-11-18T16:31:54.453Z,99641.21
2022-11-18T16:34:25.128Z,99647.67
2022-11-18T16:36:55.944Z,99649.19
2022-11-18T16:39:26.098Z,99649.61
2022-11-18T16:42:06.893Z,99651.23
2022-11-18T16:44:36.044Z,99656.89
2022-11-18T16:47:07.721Z,99661.45
2022-11-18T16:49:40.334Z,99662.98
2022-11-18T16:52:08.816Z,99662.60
2022-11-18T16:54:42.892Z,99663.48
2022-11-18T16:57:13.354Z,99659.90
2022-11-18T16:59:41.090Z,99660.77
2022-11-18T17:02:12.398Z,99660.11
2022-11-18T17:04:40.241Z,99666.32
2022-11-18T17:07:08.190Z,99668.77
2022-11-18T17:09:36.120Z,99665.63
2022-11-18T17:12:04.301Z,99663.20
2022-11-18T17:14:32.014Z,99667.17
2022-11-18T17:16:59.983Z,99668.80
2022-11-18T17:19:27.748Z,99669.91
2022-11-18T17:21:55.606Z,99671.09
2022-11-18T17:24:24.070Z,99673.09
2022-11-18T17:26:52.211Z,99677.78
2022-11-18T17:29:20.678Z,99677.91
2022-11-18T17:31:49.347Z,99680.09
2022-11-18T17:34:17.544Z,99678.64
2022-11-18T17:36:45.748Z,99681.34
2022-11-18T17:39:13.619Z,99685.23
2022-11-18T17:42:00.038Z,99684.73
2022-11-18T17:44:29.493Z,99692.11
2022-11-18T17:46:57.280Z,99691.27
2022-11-18T17:49:25.032Z,99692.50
2022-11-18T17:51:52.735Z,99688.62
2022-11-18T17:54:21.593Z,99688.82
2022-11-18T17:56:52.231Z,99689.23
2022-11-18T17:59:21.143Z,99689.41
2022-11-18T18:01:54.370Z,99688.55
2022-11-18T18:04:26.836Z,99689.98
2022-11-18T18:06:55.116Z,99693.42
2022-11-18T18:09:26.971Z,99697.52
2022-11-18T18:11:59.857Z,99698.83
2022-11-18T18:14:28.943Z,99706.63
2022-11-18T18:16:56.597Z,99708.44
2022-11-18T18:19:24.686Z,99708.50
2022-11-18T18:21:53.397Z,99706.70
2022-11-18T18:24:21.966Z,99707.77
2022-11-18T18:26:50.028Z,99710.00
2022-11-18T18:29:17.736Z,99715.83
2022-11-18T18:31:45.419Z,99717.92
2022-11-18T18:34:13.233Z,99719.45
2022-11-18T18:36:43.216Z,99721.58
2022-11-18T18:39:11.106Z,99719.69
2022-11-18T18:41:38.828Z,99724.45
2022-11-18T18:44:06.607Z,99720.86
2022-11-18T18:46:36.892Z,99723.48
2022-11-18T18:49:08.061Z,99723.14
2022-11-18T18:51:37.260Z,99725.70
2022-11-18T18:54:07.329Z,99726.61
2022-11-18T18:56:35.031Z,99725.50
2022-11-18T18:59:03.143Z,99724.87
2022-11-18T19:01:31.745Z,99731.66
2022-11-18T19:04:02.108Z,99730.43
2022-11-18T19:09:26.018Z,99725.33
2022-11-18T19:12:14.714Z,99725.28
2022-11-18T19:14:42.506Z,99722.75
2022-11-18T19:17:12.347Z,99724.94
2022-11-18T19:20:00.894Z,99723.27
2022-11-18T19:22:30.983Z,99726.41
2022-11-18T19:24:59.771Z,99724.77
2022-11-18T19:27:28.569Z,99722.30
2022-11-18T19:29:56.252Z,99723.84
2022-11-18T19:32:24.030Z,99727.88
2022-11-18T19:34:51.794Z,99732.36
2022-11-18T19:37:19.580Z,99734.11
2022-11-18T19:39:47.274Z,99737.52
2022-11-18T19:42:16.625Z,99738.20
2022-11-18T19:44:47.317Z,99738.99
2022-11-18T19:47:15.237Z,99740.80
2022-11-18T19:49:43.009Z,99744.55
2022-11-18T19:52:11.079Z,99742.05
2022-11-18T19:54:42.083Z,99745.29
2022-11-18T19:57:09.804Z,99744.44
2022-11-18T19:59:37.795Z,99749.89
2022-11-18T20:02:06.353Z,99750.85
2022-11-18T20:04:34.083Z,99755.98
2022-11-18T20:07:01.800Z,99752.59
2022-11-18T20:09:30.245Z,99752.17
2022-11-18T20:11:58.024Z,99754.91
2022-11-18T20:14:25.742Z,99756.70
2022-11-18T20:16:53.385Z,99755.52
2022-11-18T20:19:21.556Z,99752.85
2022-11-18T20:21:49.543Z,99756.85
2022-11-18T20:24:19.285Z,99759.88
2022-11-18T20:26:47.453Z,99765.46
2022-11-18T20:29:15.206Z,99765.77
2022-11-18T20:31:42.903Z,99767.77
2022-11-18T20:34:14.478Z,99769.59
2022-11-18T20:36:43.014Z,99766.57
2022-11-18T20:39:14.628Z,99773.13
2022-11-18T20:41:43.656Z,99774.03
2022-11-18T20:44:12.418Z,99773.19
2022-11-18T20:46:40.237Z,99775.23
2022-11-18T20:49:07.995Z,99774.89
2022-11-18T20:51:35.807Z,99779.83
2022-11-18T20:54:08.180Z,99779.23
2022-11-18T20:56:35.847Z,99785.58
2022-11-18T20:59:03.534Z,99794.13
2022-11-18T21:01:32.617Z,99792.55
2022-11-18T21:04:01.832Z,99795.27
2022-11-18T21:06:31.483Z,99793.83
2022-11-18T21:09:02.658Z,99793.23
2022-11-18T21:11:34.883Z,99795.14
2022-11-18T21:14:24.047Z,99794.08
2022-11-18T21:16:55.454Z,99795.23
2022-11-18T21:19:24.001Z,99801.31
2022-11-18T21:21:52.885Z,99799.49
2022-11-18T21:24:29.419Z,99798.87
2022-11-18T21:26:58.324Z,99803.52
2022-11-18T21:29:28.237Z,99801.95
2022-11-18T21:31:57.868Z,99805.31
2022-11-18T21:34:25.650Z,99805.88
2022-11-18T21:36:55.112Z,99804.00
2022-11-18T21:39:24.384Z,99803.81
2022-11-18T21:41:56.120Z,99805.08
2022-11-18T21:44:27.939Z,99804.95
2022-11-18T21:46:57.142Z,99805.80
2022-11-18T21:49:24.858Z,99809.46
2022-11-18T21:51:52.626Z,99809.77
2022-11-18T21:54:20.378Z,99809.52
2022-11-18T21:56:48.154Z,99815.61
2022-11-18T21:59:15.980Z,99813.05
2022-11-18T22:01:43.749Z,99814.16
2022-11-18T22:04:31.408Z,99806.44
2022-11-18T22:06:59.274Z,99812.36
2022-11-18T22:09:31.421Z,99813.34
2022-11-18T22:12:02.649Z,99816.23
2022-11-18T22:14:30.338Z,99819.48
2022-11-18T22:16:58.058Z,99823.74
2022-11-18T22:19:25.781Z,99826.97
2022-11-18T22:21:53.426Z,99825.50
2022-11-18T22:24:21.168Z,99825.55
2022-11-18T22:26:48.846Z,99829.15
2022-11-18T22:29:16.797Z,99829.85
2022-11-18T22:31:44.645Z,99832.35
2022-11-18T22:34:12.333Z,99829.11
2022-11-18T22:36:40.174Z,99829.51
2022-11-18T22:39:07.827Z,99835.17
2022-11-18T22:41:54.114Z,99842.88
2022-11-18T22:44:21.751Z,99842.97
2022-11-18T22:46:49.390Z,99847.12
2022-11-18T22:49:17.594Z,99845.48
2022-11-18T22:51:45.553Z,99844.91
2022-11-18T22:57:00.827Z,99847.63
2022-11-18T22:59:28.464Z,99844.41
2022-11-18T23:01:56.138Z,99844.81
2022-11-18T23:04:23.948Z,99849.72
2022-11-18T23:06:51.579Z,99849.66
2022-11-18T23:09:19.523Z,99847.48
2022-11-18T23:12:06.241Z,99847.33
2022-11-18T23:14:34.140Z,99841.27
2022-11-18T23:17:01.833Z,99843.95
2022-11-18T23:19:29.527Z,99843.33
2022-11-18T23:21:57.247Z,99842.36
2022-11-18T23:24:25.478Z,99844.06
2022-11-18T23:26:53.243Z,99843.61
2022-11-18T23:29:21.385Z,99842.09
2022-11-18T23:31:49.369Z,99846.09
2022-11-18T23:34:17.110Z,99845.11
2022-11-18T23:36:44.741Z,99841.27
2022-11-18T23:39:13.417Z,99841.29
2022-11-18T23:41:41.211Z,99839.77
2022-11-18T23:44:08.921Z,99842.11
2022-11-18T23:46:36.561Z,99846.69
2022-11-18T23:49:08.788Z,99841.77
2022-11-18T23:51:36.555Z,99840.54
2022-11-18T23:54:04.396Z,99840.02
